TimeMDT,TemperatureF,Dew PointF,Humidity,Sea Level PressureIn,VisibilityMPH,Wind Direction,Wind SpeedMPH,Gust SpeedMPH,PrecipitationIn,Events,Conditions,WindDirDegrees,DateUTC
12:53 AM,27.0,23.0,85,30.51,10.0,SW,10.4,-,N/A,,Partly Cloudy,220,2011-11-02 06:53:00
1:53 AM,27.0,21.9,81,30.51,10.0,SSW,11.5,-,N/A,,Partly Cloudy,210,2011-11-02 07:53:00
2:53 AM,27.0,21.0,78,30.50,10.0,SW,9.2,-,N/A,,Partly Cloudy,220,2011-11-02 08:53:00
3:53 AM,26.1,23.0,88,30.51,10.0,SW,10.4,-,N/A,,Clear,230,2011-11-02 09:53:00
4:53 AM,26.1,23.0,88,30.52,10.0,WSW,13.8,-,N/A,,Clear,240,2011-11-02 10:53:00
5:53 AM,26.1,21.9,84,30.51,10.0,WSW,16.1,-,N/A,,Clear,240,2011-11-02 11:53:00
6:53 AM,26.1,21.9,84,30.52,10.0,WSW,15.0,-,N/A,,Clear,240,2011-11-02 12:53:00
7:53 AM,24.1,19.9,84,30.52,10.0,SW,12.7,-,N/A,,Clear,230,2011-11-02 13:53:00
8:53 AM,26.6,19.4,74,30.39,10.0,WSW,17.3,-,N/A,,Clear,240,2011-11-02 14:53:00
9:53 AM,28.9,19.9,69,30.51,10.0,WSW,13.8,-,N/A,,Clear,240,2011-11-02 15:53:00
10:53 AM,32.0,21.9,66,30.48,10.0,SW,17.3,23.0,N/A,,Clear,220,2011-11-02 16:53:00
11:53 AM,41.0,21.9,47,30.43,10.0,SW,16.1,24.2,N/A,,Clear,220,2011-11-02 17:53:00
12:53 PM,43.0,14.0,31,30.39,10.0,SW,23.0,31.1,N/A,,Clear,230,2011-11-02 18:53:00
1:53 PM,44.1,12.9,28,30.35,10.0,SW,23.0,32.2,N/A,,Clear,220,2011-11-02 19:53:00
2:53 PM,45.0,14.0,29,30.35,10.0,SW,19.6,29.9,N/A,,Clear,230,2011-11-02 20:53:00
3:53 PM,44.6,15.8,31,30.25,10.0,SW,19.6,32.2,N/A,,Clear,220,2011-11-02 21:53:00
4:53 PM,44.1,14.0,30,30.31,10.0,SW,20.7,29.9,N/A,,Clear,230,2011-11-02 22:53:00
5:53 PM,43.0,14.0,31,30.28,10.0,SW,16.1,27.6,N/A,,Clear,220,2011-11-02 23:53:00
6:53 PM,41.0,12.9,32,30.28,10.0,SW,13.8,-,N/A,,Clear,230,2011-11-03 00:53:00
7:53 PM,39.9,12.0,32,30.27,10.0,WSW,17.3,-,N/A,,Clear,240,2011-11-03 01:53:00
8:53 PM,37.9,10.9,33,30.25,10.0,WSW,18.4,-,N/A,,Clear,240,2011-11-03 02:53:00
9:53 PM,37.0,10.9,34,30.23,10.0,WSW,21.9,-,N/A,,Clear,250,2011-11-03 03:53:00
10:53 PM,36.0,12.0,37,30.20,10.0,SW,17.3,-,N/A,,Clear,230,2011-11-03 04:53:00
11:53 PM,37.0,10.9,34,30.14,10.0,WSW,20.7,-,N/A,,Clear,240,2011-11-03 05:53:00